sensor_id;sensor_type;location;lat;lon;timestamp;P1;durP1;ratioP1;P2;durP2;ratioP2
19231;SDS011;9750;48.730;10.294;2024-03-22T00:00:03;8.27;;;6.27;;
19231;SDS011;9750;48.730;10.294;2024-03-22T00:02:30;7.10;;;6.40;;
19231;SDS011;9750;48.730;10.294;2024-03-22T00:04:58;7.00;;;5.80;;
19231;SDS011;9750;48.730;10.294;2024-03-22T00:07:24;5.97;;;5.10;;
19231;SDS011;9750;48.730;10.294;2024-03-22T00:09:53;4.40;;;4.00;;
19231;SDS011;9750;48.730;10.294;2024-03-22T00:12:19;4.93;;;4.30;;
19231;SDS011;9750;48.730;10.294;2024-03-22T00:14:47;7.20;;;5.13;;
19231;SDS011;9750;48.730;10.294;2024-03-22T00:17:13;9.67;;;6.73;;
19231;SDS011;9750;48.730;10.294;2024-03-22T00:19:43;6.97;;;6.13;;
19231;SDS011;9750;48.730;10.294;2024-03-22T00:22:09;7.80;;;6.70;;
19231;SDS011;9750;48.730;10.294;2024-03-22T00:24:37;6.77;;;5.60;;
19231;SDS011;9750;48.730;10.294;2024-03-22T00:27:07;7.67;;;6.87;;
19231;SDS011;9750;48.730;10.294;2024-03-22T00:29:38;8.33;;;6.63;;
19231;SDS011;9750;48.730;10.294;2024-03-22T00:32:04;6.57;;;5.87;;
19231;SDS011;9750;48.730;10.294;2024-03-22T00:34:33;9.43;;;6.37;;
19231;SDS011;9750;48.730;10.294;2024-03-22T00:37:03;6.50;;;5.80;;
19231;SDS011;9750;48.730;10.294;2024-03-22T00:39:34;8.27;;;7.33;;
19231;SDS011;9750;48.730;10.294;2024-03-22T00:42:00;9.37;;;7.50;;
19231;SDS011;9750;48.730;10.294;2024-03-22T00:44:29;7.53;;;6.47;;
19231;SDS011;9750;48.730;10.294;2024-03-22T00:46:56;7.37;;;5.87;;
19231;SDS011;9750;48.730;10.294;2024-03-22T00:49:23;7.87;;;6.03;;
19231;SDS011;9750;48.730;10.294;2024-03-22T00:51:49;7.57;;;6.77;;
19231;SDS011;9750;48.730;10.294;2024-03-22T00:54:17;8.73;;;7.00;;
19231;SDS011;9750;48.730;10.294;2024-03-22T00:56:43;8.70;;;6.60;;
19231;SDS011;9750;48.730;10.294;2024-03-22T00:59:10;7.83;;;6.63;;
19231;SDS011;9750;48.730;10.294;2024-03-22T01:01:38;8.10;;;7.30;;
19231;SDS011;9750;48.730;10.294;2024-03-22T01:04:05;8.10;;;7.10;;
19231;SDS011;9750;48.730;10.294;2024-03-22T01:06:34;7.20;;;6.50;;
19231;SDS011;9750;48.730;10.294;2024-03-22T01:09:01;8.70;;;6.70;;
19231;SDS011;9750;48.730;10.294;2024-03-22T01:11:28;9.53;;;7.43;;
19231;SDS011;9750;48.730;10.294;2024-03-22T01:13:56;7.27;;;6.57;;
19231;SDS011;9750;48.730;10.294;2024-03-22T01:16:22;7.93;;;6.20;;
19231;SDS011;9750;48.730;10.294;2024-03-22T01:18:51;6.17;;;4.43;;
19231;SDS011;9750;48.730;10.294;2024-03-22T01:21:17;5.13;;;4.07;;
19231;SDS011;9750;48.730;10.294;2024-03-22T01:23:50;6.60;;;3.90;;
19231;SDS011;9750;48.730;10.294;2024-03-22T01:26:16;4.97;;;3.90;;
19231;SDS011;9750;48.730;10.294;2024-03-22T01:28:46;6.10;;;3.77;;
19231;SDS011;9750;48.730;10.294;2024-03-22T01:31:12;4.67;;;3.57;;
19231;SDS011;9750;48.730;10.294;2024-03-22T01:33:40;4.00;;;3.10;;
19231;SDS011;9750;48.730;10.294;2024-03-22T01:36:07;5.73;;;3.80;;
19231;SDS011;9750;48.730;10.294;2024-03-22T01:38:35;3.90;;;3.40;;
19231;SDS011;9750;48.730;10.294;2024-03-22T01:41:01;4.50;;;3.50;;
19231;SDS011;9750;48.730;10.294;2024-03-22T01:43:28;4.00;;;3.60;;
19231;SDS011;9750;48.730;10.294;2024-03-22T01:45:55;4.10;;;3.33;;
19231;SDS011;9750;48.730;10.294;2024-03-22T01:48:22;4.50;;;3.43;;
19231;SDS011;9750;48.730;10.294;2024-03-22T01:50:48;4.50;;;3.37;;
19231;SDS011;9750;48.730;10.294;2024-03-22T01:53:18;6.67;;;4.50;;
19231;SDS011;9750;48.730;10.294;2024-03-22T01:55:44;4.87;;;4.23;;
19231;SDS011;9750;48.730;10.294;2024-03-22T01:58:12;9.03;;;6.83;;
19231;SDS011;9750;48.730;10.294;2024-03-22T02:00:38;8.07;;;6.97;;
19231;SDS011;9750;48.730;10.294;2024-03-22T02:03:05;7.27;;;6.50;;
19231;SDS011;9750;48.730;10.294;2024-03-22T02:08:51;13.20;;;9.90;;
19231;SDS011;9750;48.730;10.294;2024-03-22T02:11:17;13.13;;;11.10;;
19231;SDS011;9750;48.730;10.294;2024-03-22T02:13:45;10.90;;;8.90;;
19231;SDS011;9750;48.730;10.294;2024-03-22T02:16:11;16.63;;;11.47;;
19231;SDS011;9750;48.730;10.294;2024-03-22T02:18:39;13.33;;;10.23;;
19231;SDS011;9750;48.730;10.294;2024-03-22T02:21:09;19.87;;;15.07;;
19231;SDS011;9750;48.730;10.294;2024-03-22T02:23:38;20.23;;;15.20;;
19231;SDS011;9750;48.730;10.294;2024-03-22T02:29:27;23.37;;;17.03;;
19231;SDS011;9750;48.730;10.294;2024-03-22T02:31:55;18.67;;;15.07;;
19231;SDS011;9750;48.730;10.294;2024-03-22T02:34:23;20.43;;;14.97;;
19231;SDS011;9750;48.730;10.294;2024-03-22T02:36:50;20.53;;;16.00;;
19231;SDS011;9750;48.730;10.294;2024-03-22T02:39:18;23.07;;;17.83;;
19231;SDS011;9750;48.730;10.294;2024-03-22T02:41:45;25.77;;;18.37;;
19231;SDS011;9750;48.730;10.294;2024-03-22T02:44:11;26.83;;;18.70;;
19231;SDS011;9750;48.730;10.294;2024-03-22T02:46:39;22.10;;;17.20;;
19231;SDS011;9750;48.730;10.294;2024-03-22T02:49:05;25.10;;;19.53;;
19231;SDS011;9750;48.730;10.294;2024-03-22T02:51:32;27.23;;;19.10;;
19231;SDS011;9750;48.730;10.294;2024-03-22T02:53:59;26.73;;;19.60;;
19231;SDS011;9750;48.730;10.294;2024-03-22T02:56:28;28.80;;;21.40;;
19231;SDS011;9750;48.730;10.294;2024-03-22T02:58:54;28.57;;;20.77;;
19231;SDS011;9750;48.730;10.294;2024-03-22T03:01:21;26.53;;;19.77;;
19231;SDS011;9750;48.730;10.294;2024-03-22T03:03:48;29.30;;;21.60;;
19231;SDS011;9750;48.730;10.294;2024-03-22T03:06:15;33.20;;;21.10;;
19231;SDS011;9750;48.730;10.294;2024-03-22T03:08:43;33.93;;;22.53;;
19231;SDS011;9750;48.730;10.294;2024-03-22T03:11:10;13.13;;;11.23;;
19231;SDS011;9750;48.730;10.294;2024-03-22T03:13:38;13.13;;;10.33;;
19231;SDS011;9750;48.730;10.294;2024-03-22T03:16:05;15.77;;;11.80;;
19231;SDS011;9750;48.730;10.294;2024-03-22T03:18:32;11.27;;;8.97;;
19231;SDS011;9750;48.730;10.294;2024-03-22T03:20:59;8.77;;;7.77;;
19231;SDS011;9750;48.730;10.294;2024-03-22T03:23:25;10.13;;;7.83;;
19231;SDS011;9750;48.730;10.294;2024-03-22T03:25:52;9.47;;;7.70;;
19231;SDS011;9750;48.730;10.294;2024-03-22T03:28:18;11.27;;;8.40;;
19231;SDS011;9750;48.730;10.294;2024-03-22T03:30:47;14.03;;;11.70;;
19231;SDS011;9750;48.730;10.294;2024-03-22T03:33:13;21.70;;;16.93;;
19231;SDS011;9750;48.730;10.294;2024-03-22T03:35:45;31.73;;;22.77;;
19231;SDS011;9750;48.730;10.294;2024-03-22T03:38:11;27.67;;;19.50;;
19231;SDS011;9750;48.730;10.294;2024-03-22T03:40:39;29.00;;;22.10;;
19231;SDS011;9750;48.730;10.294;2024-03-22T03:43:05;28.83;;;21.37;;
19231;SDS011;9750;48.730;10.294;2024-03-22T03:45:32;22.83;;;17.17;;
19231;SDS011;9750;48.730;10.294;2024-03-22T03:48:04;19.37;;;14.33;;
19231;SDS011;9750;48.730;10.294;2024-03-22T03:50:32;22.13;;;15.17;;
19231;SDS011;9750;48.730;10.294;2024-03-22T03:52:58;17.10;;;12.37;;
19231;SDS011;9750;48.730;10.294;2024-03-22T03:55:26;14.30;;;11.13;;
19231;SDS011;9750;48.730;10.294;2024-03-22T03:57:52;15.67;;;11.43;;
19231;SDS011;9750;48.730;10.294;2024-03-22T04:00:19;18.90;;;13.63;;
19231;SDS011;9750;48.730;10.294;2024-03-22T04:02:48;20.33;;;15.00;;
19231;SDS011;9750;48.730;10.294;2024-03-22T04:05:17;27.77;;;18.40;;
19231;SDS011;9750;48.730;10.294;2024-03-22T04:07:46;25.80;;;19.97;;
19231;SDS011;9750;48.730;10.294;2024-03-22T04:10:14;29.60;;;21.77;;
19231;SDS011;9750;48.730;10.294;2024-03-22T04:12:40;27.90;;;20.20;;
19231;SDS011;9750;48.730;10.294;2024-03-22T04:15:07;26.53;;;19.73;;
19231;SDS011;9750;48.730;10.294;2024-03-22T04:17:35;20.97;;;16.30;;
19231;SDS011;9750;48.730;10.294;2024-03-22T04:20:02;18.90;;;13.37;;
19231;SDS011;9750;48.730;10.294;2024-03-22T04:22:30;16.17;;;12.67;;
19231;SDS011;9750;48.730;10.294;2024-03-22T04:24:58;16.13;;;12.97;;
19231;SDS011;9750;48.730;10.294;2024-03-22T04:27:24;19.73;;;13.90;;
19231;SDS011;9750;48.730;10.294;2024-03-22T04:29:51;19.13;;;13.30;;
19231;SDS011;9750;48.730;10.294;2024-03-22T04:32:17;18.23;;;13.50;;
19231;SDS011;9750;48.730;10.294;2024-03-22T04:34:44;23.90;;;13.07;;
19231;SDS011;9750;48.730;10.294;2024-03-22T04:37:11;15.70;;;11.40;;
19231;SDS011;9750;48.730;10.294;2024-03-22T04:39:39;18.63;;;13.73;;
19231;SDS011;9750;48.730;10.294;2024-03-22T04:42:07;17.40;;;12.90;;
19231;SDS011;9750;48.730;10.294;2024-03-22T04:44:33;19.47;;;13.47;;
19231;SDS011;9750;48.730;10.294;2024-03-22T04:47:00;20.60;;;12.50;;
19231;SDS011;9750;48.730;10.294;2024-03-22T04:49:27;19.03;;;12.37;;
19231;SDS011;9750;48.730;10.294;2024-03-22T04:51:54;19.10;;;12.60;;
19231;SDS011;9750;48.730;10.294;2024-03-22T04:54:20;29.57;;;21.97;;
19231;SDS011;9750;48.730;10.294;2024-03-22T04:56:49;29.43;;;22.43;;
19231;SDS011;9750;48.730;10.294;2024-03-22T04:59:16;21.77;;;16.57;;
19231;SDS011;9750;48.730;10.294;2024-03-22T05:01:43;20.27;;;16.03;;
19231;SDS011;9750;48.730;10.294;2024-03-22T05:04:09;20.90;;;16.30;;
19231;SDS011;9750;48.730;10.294;2024-03-22T05:06:37;23.23;;;16.87;;
19231;SDS011;9750;48.730;10.294;2024-03-22T05:09:03;22.23;;;18.07;;
19231;SDS011;9750;48.730;10.294;2024-03-22T05:11:31;23.50;;;16.47;;
19231;SDS011;9750;48.730;10.294;2024-03-22T05:13:58;23.40;;;16.27;;
19231;SDS011;9750;48.730;10.294;2024-03-22T05:16:26;20.00;;;14.40;;
19231;SDS011;9750;48.730;10.294;2024-03-22T05:18:52;20.97;;;15.30;;
19231;SDS011;9750;48.730;10.294;2024-03-22T05:21:19;25.03;;;15.03;;
19231;SDS011;9750;48.730;10.294;2024-03-22T05:23:45;20.97;;;14.00;;
19231;SDS011;9750;48.730;10.294;2024-03-22T05:26:13;21.27;;;14.40;;
19231;SDS011;9750;48.730;10.294;2024-03-22T05:28:39;20.92;;;14.75;;
19231;SDS011;9750;48.730;10.294;2024-03-22T05:31:08;19.00;;;13.97;;
19231;SDS011;9750;48.730;10.294;2024-03-22T05:33:34;24.20;;;17.27;;
19231;SDS011;9750;48.730;10.294;2024-03-22T05:36:02;23.23;;;17.50;;
19231;SDS011;9750;48.730;10.294;2024-03-22T05:38:28;25.40;;;19.27;;
19231;SDS011;9750;48.730;10.294;2024-03-22T05:40:55;22.10;;;17.40;;
19231;SDS011;9750;48.730;10.294;2024-03-22T05:43:21;29.97;;;24.17;;
19231;SDS011;9750;48.730;10.294;2024-03-22T05:45:49;25.40;;;19.70;;
19231;SDS011;9750;48.730;10.294;2024-03-22T05:48:16;24.83;;;19.37;;
19231;SDS011;9750;48.730;10.294;2024-03-22T05:50:43;26.63;;;18.90;;
19231;SDS011;9750;48.730;10.294;2024-03-22T05:53:10;24.93;;;19.13;;
19231;SDS011;9750;48.730;10.294;2024-03-22T05:55:37;23.23;;;18.17;;
19231;SDS011;9750;48.730;10.294;2024-03-22T05:58:03;25.23;;;19.60;;
19231;SDS011;9750;48.730;10.294;2024-03-22T06:00:31;23.63;;;17.40;;
19231;SDS011;9750;48.730;10.294;2024-03-22T06:02:58;23.80;;;17.90;;
19231;SDS011;9750;48.730;10.294;2024-03-22T06:05:26;22.13;;;16.97;;
19231;SDS011;9750;48.730;10.294;2024-03-22T06:07:53;22.30;;;16.77;;
19231;SDS011;9750;48.730;10.294;2024-03-22T06:10:20;20.00;;;15.40;;
19231;SDS011;9750;48.730;10.294;2024-03-22T06:12:47;23.67;;;17.10;;
19231;SDS011;9750;48.730;10.294;2024-03-22T06:18:36;21.50;;;15.83;;
19231;SDS011;9750;48.730;10.294;2024-03-22T06:21:05;42.13;;;27.40;;
19231;SDS011;9750;48.730;10.294;2024-03-22T06:23:32;29.37;;;21.03;;
19231;SDS011;9750;48.730;10.294;2024-03-22T06:25:59;60.23;;;49.90;;
19231;SDS011;9750;48.730;10.294;2024-03-22T06:28:26;52.10;;;41.63;;
19231;SDS011;9750;48.730;10.294;2024-03-22T06:30:54;27.40;;;19.70;;
19231;SDS011;9750;48.730;10.294;2024-03-22T06:33:20;24.93;;;18.10;;
19231;SDS011;9750;48.730;10.294;2024-03-22T06:35:48;23.27;;;18.50;;
19231;SDS011;9750;48.730;10.294;2024-03-22T06:38:15;25.70;;;18.30;;
19231;SDS011;9750;48.730;10.294;2024-03-22T06:40:43;25.70;;;18.80;;
19231;SDS011;9750;48.730;10.294;2024-03-22T06:43:10;18.80;;;14.10;;
19231;SDS011;9750;48.730;10.294;2024-03-22T06:45:37;14.83;;;11.40;;
19231;SDS011;9750;48.730;10.294;2024-03-22T06:48:03;12.33;;;9.30;;
19231;SDS011;9750;48.730;10.294;2024-03-22T06:50:31;13.63;;;10.67;;
19231;SDS011;9750;48.730;10.294;2024-03-22T06:52:57;15.83;;;13.10;;
19231;SDS011;9750;48.730;10.294;2024-03-22T06:55:26;15.77;;;12.40;;
19231;SDS011;9750;48.730;10.294;2024-03-22T06:57:52;13.43;;;10.50;;
19231;SDS011;9750;48.730;10.294;2024-03-22T07:00:19;11.87;;;10.47;;
19231;SDS011;9750;48.730;10.294;2024-03-22T07:02:46;12.67;;;9.33;;
19231;SDS011;9750;48.730;10.294;2024-03-22T07:05:13;11.27;;;9.60;;
19231;SDS011;9750;48.730;10.294;2024-03-22T07:07:39;14.60;;;10.30;;
19231;SDS011;9750;48.730;10.294;2024-03-22T07:10:07;15.87;;;11.13;;
19231;SDS011;9750;48.730;10.294;2024-03-22T07:12:35;13.57;;;8.93;;
19231;SDS011;9750;48.730;10.294;2024-03-22T07:15:02;12.80;;;9.97;;
19231;SDS011;9750;48.730;10.294;2024-03-22T07:17:29;12.97;;;9.40;;
19231;SDS011;9750;48.730;10.294;2024-03-22T07:19:56;12.43;;;9.53;;
19231;SDS011;9750;48.730;10.294;2024-03-22T07:22:23;10.70;;;8.63;;
19231;SDS011;9750;48.730;10.294;2024-03-22T07:24:50;12.53;;;8.70;;
19231;SDS011;9750;48.730;10.294;2024-03-22T07:27:16;12.63;;;8.97;;
19231;SDS011;9750;48.730;10.294;2024-03-22T07:29:45;12.10;;;8.20;;
19231;SDS011;9750;48.730;10.294;2024-03-22T07:32:11;23.80;;;21.47;;
19231;SDS011;9750;48.730;10.294;2024-03-22T07:34:38;9.40;;;7.73;;
19231;SDS011;9750;48.730;10.294;2024-03-22T07:37:05;8.97;;;7.17;;
19231;SDS011;9750;48.730;10.294;2024-03-22T07:39:32;9.60;;;7.30;;
19231;SDS011;9750;48.730;10.294;2024-03-22T07:41:58;8.43;;;7.33;;
19231;SDS011;9750;48.730;10.294;2024-03-22T07:44:26;8.97;;;7.07;;
19231;SDS011;9750;48.730;10.294;2024-03-22T07:46:55;10.07;;;7.73;;
19231;SDS011;9750;48.730;10.294;2024-03-22T07:49:22;10.40;;;7.43;;
19231;SDS011;9750;48.730;10.294;2024-03-22T07:51:48;7.73;;;6.90;;
19231;SDS011;9750;48.730;10.294;2024-03-22T07:54:16;9.03;;;7.20;;
19231;SDS011;9750;48.730;10.294;2024-03-22T07:56:42;10.03;;;7.23;;
19231;SDS011;9750;48.730;10.294;2024-03-22T07:59:09;8.40;;;6.97;;
19231;SDS011;9750;48.730;10.294;2024-03-22T08:01:35;8.83;;;7.60;;
19231;SDS011;9750;48.730;10.294;2024-03-22T08:04:04;8.23;;;7.40;;
19231;SDS011;9750;48.730;10.294;2024-03-22T08:06:30;10.47;;;8.07;;
19231;SDS011;9750;48.730;10.294;2024-03-22T08:08:57;10.53;;;8.20;;
19231;SDS011;9750;48.730;10.294;2024-03-22T08:11:24;10.63;;;8.20;;
19231;SDS011;9750;48.730;10.294;2024-03-22T08:13:53;13.20;;;7.93;;
19231;SDS011;9750;48.730;10.294;2024-03-22T08:16:27;10.57;;;8.17;;
19231;SDS011;9750;48.730;10.294;2024-03-22T08:18:54;9.20;;;7.10;;
19231;SDS011;9750;48.730;10.294;2024-03-22T08:21:22;10.60;;;7.73;;
19231;SDS011;9750;48.730;10.294;2024-03-22T08:23:49;10.00;;;7.40;;
19231;SDS011;9750;48.730;10.294;2024-03-22T08:26:16;8.27;;;7.47;;
19231;SDS011;9750;48.730;10.294;2024-03-22T08:28:43;8.13;;;7.33;;
19231;SDS011;9750;48.730;10.294;2024-03-22T08:31:10;8.87;;;7.50;;
19231;SDS011;9750;48.730;10.294;2024-03-22T08:33:37;7.93;;;7.20;;
19231;SDS011;9750;48.730;10.294;2024-03-22T08:39:26;8.57;;;7.33;;
19231;SDS011;9750;48.730;10.294;2024-03-22T08:41:53;8.93;;;7.33;;
19231;SDS011;9750;48.730;10.294;2024-03-22T08:44:20;8.87;;;7.20;;
19231;SDS011;9750;48.730;10.294;2024-03-22T08:46:47;8.40;;;7.33;;
19231;SDS011;9750;48.730;10.294;2024-03-22T08:49:15;10.43;;;6.77;;
19231;SDS011;9750;48.730;10.294;2024-03-22T08:51:44;9.43;;;7.07;;
19231;SDS011;9750;48.730;10.294;2024-03-22T08:54:11;8.37;;;6.93;;
19231;SDS011;9750;48.730;10.294;2024-03-22T08:56:40;9.37;;;7.40;;
19231;SDS011;9750;48.730;10.294;2024-03-22T08:59:06;7.90;;;7.07;;
19231;SDS011;9750;48.730;10.294;2024-03-22T09:01:33;9.63;;;7.00;;
19231;SDS011;9750;48.730;10.294;2024-03-22T09:04:00;9.27;;;7.33;;
19231;SDS011;9750;48.730;10.294;2024-03-22T09:06:27;9.37;;;7.60;;
19231;SDS011;9750;48.730;10.294;2024-03-22T09:08:54;9.20;;;7.63;;
19231;SDS011;9750;48.730;10.294;2024-03-22T09:11:23;9.37;;;7.30;;
19231;SDS011;9750;48.730;10.294;2024-03-22T09:13:52;9.07;;;7.47;;
19231;SDS011;9750;48.730;10.294;2024-03-22T09:16:20;9.27;;;7.40;;
19231;SDS011;9750;48.730;10.294;2024-03-22T09:18:46;10.40;;;7.63;;
19231;SDS011;9750;48.730;10.294;2024-03-22T09:21:13;8.17;;;7.37;;
19231;SDS011;9750;48.730;10.294;2024-03-22T09:23:40;8.60;;;6.97;;
19231;SDS011;9750;48.730;10.294;2024-03-22T09:26:07;9.00;;;6.73;;
19231;SDS011;9750;48.730;10.294;2024-03-22T09:28:33;9.90;;;6.27;;
19231;SDS011;9750;48.730;10.294;2024-03-22T09:31:04;7.87;;;7.07;;
19231;SDS011;9750;48.730;10.294;2024-03-22T09:33:31;7.87;;;6.63;;
19231;SDS011;9750;48.730;10.294;2024-03-22T09:35:59;9.03;;;7.03;;
19231;SDS011;9750;48.730;10.294;2024-03-22T09:38:25;7.33;;;6.63;;
19231;SDS011;9750;48.730;10.294;2024-03-22T09:40:53;8.40;;;6.90;;
19231;SDS011;9750;48.730;10.294;2024-03-22T09:43:19;13.30;;;7.93;;
19231;SDS011;9750;48.730;10.294;2024-03-22T09:45:47;8.00;;;6.83;;
19231;SDS011;9750;48.730;10.294;2024-03-22T09:48:16;7.73;;;6.93;;
19231;SDS011;9750;48.730;10.294;2024-03-22T09:50:44;9.17;;;6.97;;
19231;SDS011;9750;48.730;10.294;2024-03-22T09:53:12;8.97;;;7.43;;
19231;SDS011;9750;48.730;10.294;2024-03-22T09:55:41;7.83;;;7.00;;
19231;SDS011;9750;48.730;10.294;2024-03-22T09:58:08;10.17;;;6.97;;
19231;SDS011;9750;48.730;10.294;2024-03-22T10:00:36;10.10;;;7.73;;
19231;SDS011;9750;48.730;10.294;2024-03-22T10:03:03;9.13;;;6.63;;
19231;SDS011;9750;48.730;10.294;2024-03-22T10:05:32;9.30;;;7.53;;
19231;SDS011;9750;48.730;10.294;2024-03-22T10:07:59;11.83;;;7.50;;
19231;SDS011;9750;48.730;10.294;2024-03-22T10:10:26;9.23;;;6.77;;
19231;SDS011;9750;48.730;10.294;2024-03-22T10:12:53;10.50;;;7.40;;
19231;SDS011;9750;48.730;10.294;2024-03-22T10:15:20;7.93;;;7.03;;
19231;SDS011;9750;48.730;10.294;2024-03-22T10:17:48;11.63;;;7.40;;
19231;SDS011;9750;48.730;10.294;2024-03-22T10:20:16;9.87;;;7.07;;
19231;SDS011;9750;48.730;10.294;2024-03-22T10:22:47;7.77;;;6.47;;
19231;SDS011;9750;48.730;10.294;2024-03-22T10:25:15;9.23;;;6.67;;
19231;SDS011;9750;48.730;10.294;2024-03-22T10:27:41;7.87;;;6.83;;
19231;SDS011;9750;48.730;10.294;2024-03-22T10:30:09;12.87;;;6.80;;
19231;SDS011;9750;48.730;10.294;2024-03-22T10:32:37;7.67;;;6.60;;
19231;SDS011;9750;48.730;10.294;2024-03-22T10:35:05;8.43;;;6.30;;
19231;SDS011;9750;48.730;10.294;2024-03-22T10:37:32;7.40;;;6.37;;
19231;SDS011;9750;48.730;10.294;2024-03-22T10:40:02;7.20;;;5.77;;
19231;SDS011;9750;48.730;10.294;2024-03-22T10:42:32;8.30;;;6.63;;
19231;SDS011;9750;48.730;10.294;2024-03-22T10:45:00;7.20;;;6.47;;
19231;SDS011;9750;48.730;10.294;2024-03-22T10:47:28;8.03;;;6.63;;
19231;SDS011;9750;48.730;10.294;2024-03-22T10:49:58;8.27;;;6.60;;
19231;SDS011;9750;48.730;10.294;2024-03-22T10:52:31;10.63;;;6.53;;
19231;SDS011;9750;48.730;10.294;2024-03-22T10:55:02;8.60;;;6.50;;
19231;SDS011;9750;48.730;10.294;2024-03-22T10:57:31;9.40;;;7.10;;
19231;SDS011;9750;48.730;10.294;2024-03-22T11:00:02;7.90;;;7.10;;
19231;SDS011;9750;48.730;10.294;2024-03-22T11:02:35;9.03;;;7.17;;
19231;SDS011;9750;48.730;10.294;2024-03-22T11:05:02;7.97;;;7.27;;
19231;SDS011;9750;48.730;10.294;2024-03-22T11:07:29;8.43;;;6.73;;
19231;SDS011;9750;48.730;10.294;2024-03-22T11:09:57;9.03;;;7.27;;
19231;SDS011;9750;48.730;10.294;2024-03-22T11:12:27;10.40;;;7.20;;
19231;SDS011;9750;48.730;10.294;2024-03-22T11:14:58;7.87;;;6.20;;
19231;SDS011;9750;48.730;10.294;2024-03-22T11:17:25;6.83;;;5.67;;
19231;SDS011;9750;48.730;10.294;2024-03-22T11:19:52;6.90;;;5.80;;
19231;SDS011;9750;48.730;10.294;2024-03-22T11:22:18;6.30;;;5.70;;
19231;SDS011;9750;48.730;10.294;2024-03-22T11:24:45;6.37;;;5.47;;
19231;SDS011;9750;48.730;10.294;2024-03-22T11:27:12;6.13;;;5.10;;
19231;SDS011;9750;48.730;10.294;2024-03-22T11:29:40;6.77;;;5.47;;
19231;SDS011;9750;48.730;10.294;2024-03-22T11:32:06;6.23;;;5.63;;
19231;SDS011;9750;48.730;10.294;2024-03-22T11:34:43;6.47;;;4.83;;
19231;SDS011;9750;48.730;10.294;2024-03-22T11:37:11;8.17;;;5.33;;
19231;SDS011;9750;48.730;10.294;2024-03-22T11:39:38;10.27;;;4.83;;
19231;SDS011;9750;48.730;10.294;2024-03-22T11:42:05;6.50;;;5.30;;
19231;SDS011;9750;48.730;10.294;2024-03-22T11:44:35;8.27;;;4.80;;
19231;SDS011;9750;48.730;10.294;2024-03-22T11:47:05;6.60;;;4.73;;
19231;SDS011;9750;48.730;10.294;2024-03-22T11:49:32;5.13;;;4.50;;
19231;SDS011;9750;48.730;10.294;2024-03-22T11:51:59;5.43;;;4.43;;
19231;SDS011;9750;48.730;10.294;2024-03-22T11:54:27;6.63;;;4.40;;
19231;SDS011;9750;48.730;10.294;2024-03-22T11:56:55;7.53;;;5.40;;
19231;SDS011;9750;48.730;10.294;2024-03-22T11:59:22;6.37;;;5.47;;
19231;SDS011;9750;48.730;10.294;2024-03-22T12:01:49;6.80;;;4.77;;
19231;SDS011;9750;48.730;10.294;2024-03-22T12:04:17;6.33;;;4.60;;
19231;SDS011;9750;48.730;10.294;2024-03-22T12:06:44;4.53;;;4.13;;
19231;SDS011;9750;48.730;10.294;2024-03-22T12:09:11;4.57;;;3.83;;
19231;SDS011;9750;48.730;10.294;2024-03-22T12:11:39;5.87;;;4.73;;
19231;SDS011;9750;48.730;10.294;2024-03-22T12:14:06;6.30;;;3.90;;
19231;SDS011;9750;48.730;10.294;2024-03-22T12:16:33;4.83;;;3.97;;
19231;SDS011;9750;48.730;10.294;2024-03-22T12:18:59;7.07;;;5.10;;
19231;SDS011;9750;48.730;10.294;2024-03-22T12:21:28;4.40;;;3.90;;
19231;SDS011;9750;48.730;10.294;2024-03-22T12:23:55;4.80;;;3.47;;
19231;SDS011;9750;48.730;10.294;2024-03-22T12:26:22;4.90;;;4.07;;
19231;SDS011;9750;48.730;10.294;2024-03-22T12:28:48;4.77;;;3.83;;
19231;SDS011;9750;48.730;10.294;2024-03-22T12:31:16;5.33;;;3.87;;
19231;SDS011;9750;48.730;10.294;2024-03-22T12:33:43;4.53;;;4.00;;
19231;SDS011;9750;48.730;10.294;2024-03-22T12:36:11;4.23;;;3.87;;
19231;SDS011;9750;48.730;10.294;2024-03-22T12:38:38;4.83;;;3.63;;
19231;SDS011;9750;48.730;10.294;2024-03-22T12:41:06;5.27;;;4.30;;
19231;SDS011;9750;48.730;10.294;2024-03-22T12:43:33;5.07;;;4.50;;
19231;SDS011;9750;48.730;10.294;2024-03-22T12:46:01;4.80;;;4.30;;
19231;SDS011;9750;48.730;10.294;2024-03-22T12:48:28;5.17;;;4.70;;
19231;SDS011;9750;48.730;10.294;2024-03-22T12:50:55;6.93;;;4.30;;
19231;SDS011;9750;48.730;10.294;2024-03-22T12:53:21;6.67;;;4.50;;
19231;SDS011;9750;48.730;10.294;2024-03-22T12:55:50;9.83;;;4.27;;
19231;SDS011;9750;48.730;10.294;2024-03-22T12:58:16;4.57;;;4.17;;
19231;SDS011;9750;48.730;10.294;2024-03-22T13:00:43;5.13;;;4.17;;
19231;SDS011;9750;48.730;10.294;2024-03-22T13:03:10;5.33;;;4.37;;
19231;SDS011;9750;48.730;10.294;2024-03-22T13:05:38;4.17;;;3.73;;
19231;SDS011;9750;48.730;10.294;2024-03-22T13:08:04;5.80;;;4.10;;
19231;SDS011;9750;48.730;10.294;2024-03-22T13:10:32;4.63;;;3.47;;
19231;SDS011;9750;48.730;10.294;2024-03-22T13:13:00;6.87;;;4.00;;
19231;SDS011;9750;48.730;10.294;2024-03-22T13:15:27;5.30;;;3.60;;
19231;SDS011;9750;48.730;10.294;2024-03-22T13:17:53;4.13;;;3.70;;
19231;SDS011;9750;48.730;10.294;2024-03-22T13:20:21;4.73;;;3.77;;
19231;SDS011;9750;48.730;10.294;2024-03-22T13:22:47;4.60;;;3.60;;
19231;SDS011;9750;48.730;10.294;2024-03-22T13:25:14;4.40;;;3.63;;
19231;SDS011;9750;48.730;10.294;2024-03-22T13:27:41;4.33;;;3.40;;
19231;SDS011;9750;48.730;10.294;2024-03-22T13:30:10;6.97;;;3.93;;
19231;SDS011;9750;48.730;10.294;2024-03-22T13:32:37;5.83;;;3.73;;
19231;SDS011;9750;48.730;10.294;2024-03-22T13:35:05;4.73;;;3.40;;
19231;SDS011;9750;48.730;10.294;2024-03-22T13:37:32;6.47;;;4.70;;
19231;SDS011;9750;48.730;10.294;2024-03-22T13:39:59;5.53;;;3.93;;
19231;SDS011;9750;48.730;10.294;2024-03-22T13:42:25;5.57;;;3.60;;
19231;SDS011;9750;48.730;10.294;2024-03-22T13:44:53;3.42;;;3.13;;
19231;SDS011;9750;48.730;10.294;2024-03-22T13:47:20;5.97;;;4.10;;
19231;SDS011;9750;48.730;10.294;2024-03-22T13:49:47;4.07;;;3.45;;
19231;SDS011;9750;48.730;10.294;2024-03-22T13:52:14;4.82;;;3.88;;
19231;SDS011;9750;48.730;10.294;2024-03-22T13:54:41;6.25;;;3.78;;
19231;SDS011;9750;48.730;10.294;2024-03-22T13:57:07;5.13;;;3.73;;
19231;SDS011;9750;48.730;10.294;2024-03-22T13:59:34;5.07;;;4.17;;
19231;SDS011;9750;48.730;10.294;2024-03-22T14:02:03;10.57;;;4.60;;
19231;SDS011;9750;48.730;10.294;2024-03-22T14:04:31;5.55;;;3.95;;
19231;SDS011;9750;48.730;10.294;2024-03-22T14:06:58;5.23;;;4.33;;
19231;SDS011;9750;48.730;10.294;2024-03-22T14:09:29;5.47;;;4.13;;
19231;SDS011;9750;48.730;10.294;2024-03-22T14:11:56;6.32;;;3.67;;
19231;SDS011;9750;48.730;10.294;2024-03-22T14:14:24;4.45;;;3.80;;
19231;SDS011;9750;48.730;10.294;2024-03-22T14:16:51;5.68;;;3.72;;
19231;SDS011;9750;48.730;10.294;2024-03-22T14:19:18;4.10;;;3.63;;
19231;SDS011;9750;48.730;10.294;2024-03-22T14:21:46;4.97;;;3.55;;
19231;SDS011;9750;48.730;10.294;2024-03-22T14:24:13;4.53;;;3.83;;
19231;SDS011;9750;48.730;10.294;2024-03-22T14:26:40;4.90;;;4.00;;
19231;SDS011;9750;48.730;10.294;2024-03-22T14:29:08;5.20;;;4.07;;
19231;SDS011;9750;48.730;10.294;2024-03-22T14:31:34;4.30;;;3.90;;
19231;SDS011;9750;48.730;10.294;2024-03-22T14:34:02;4.63;;;4.18;;
19231;SDS011;9750;48.730;10.294;2024-03-22T14:36:28;4.30;;;3.58;;
19231;SDS011;9750;48.730;10.294;2024-03-22T14:38:57;5.22;;;3.30;;
19231;SDS011;9750;48.730;10.294;2024-03-22T14:41:23;6.90;;;5.57;;
19231;SDS011;9750;48.730;10.294;2024-03-22T14:43:51;7.15;;;6.10;;
19231;SDS011;9750;48.730;10.294;2024-03-22T14:46:17;7.82;;;5.80;;
19231;SDS011;9750;48.730;10.294;2024-03-22T14:48:48;7.50;;;5.95;;
19231;SDS011;9750;48.730;10.294;2024-03-22T14:51:14;6.80;;;6.10;;